Time;durP1;ratioP1;P1;durP2;ratioP2;P2;SDS_P1;SDS_P2;PMS_P1;PMS_P2;Temp;Humidity;BMP_temperature;BMP_pressure;BME280_temperature;BME280_humidity;BME280_pressure;Samples;Min_cycle;Max_cycle;Signal;HPM_P1;HPM_P2
2023/05/05 00:00:43;;;;;;;7.78;6.35;;;;;;;10.53;100.00;93171.00;2558766;23;20009;-82
2023/05/05 00:01:46;;;;;;;10.38;6.88;;;;;;;10.55;100.00;93167.94;2557966;23;20332;-83
2023/05/05 00:03:08;;;;;;;6.85;5.88;;;;;;;10.52;100.00;93168.75;2557396;23;20005;-82
2023/05/05 00:04:12;;;;;;;10.35;6.50;;;;;;;10.54;100.00;93161.84;2568742;23;20001;-81
2023/05/05 00:05:20;;;;;;;9.63;7.25;;;;;;;10.54;100.00;93169.13;2557819;23;20068;-83
2023/05/05 00:06:27;;;;;;;12.23;6.82;;;;;;;10.53;100.00;93164.91;2569552;23;20028;-82
2023/05/05 00:07:34;;;;;;;7.32;6.18;;;;;;;10.53;100.00;93163.00;2556290;23;20493;-82
2023/05/05 00:08:46;;;;;;;7.95;6.40;;;;;;;10.51;100.00;93167.25;2558694;23;20009;-83
2023/05/05 00:09:55;;;;;;;10.85;6.82;;;;;;;10.50;100.00;93155.06;2557921;23;20328;-81
2023/05/05 00:11:05;;;;;;;6.97;5.75;;;;;;;10.53;100.00;93157.66;2559640;23;20088;-82
2023/05/05 00:12:17;;;;;;;7.78;5.60;;;;;;;10.52;100.00;93158.81;2557515;23;20008;-82
2023/05/05 00:13:26;;;;;;;6.85;5.60;;;;;;;10.50;100.00;93155.06;2557854;23;20009;-82
2023/05/05 00:14:33;;;;;;;10.05;6.03;;;;;;;10.48;100.00;93155.47;2566780;23;20087;-82
2023/05/05 00:15:41;;;;;;;6.32;5.72;;;;;;;10.48;100.00;93152.78;2574354;23;20478;-83
2023/05/05 00:16:52;;;;;;;10.82;5.80;;;;;;;10.48;100.00;93158.13;2575444;23;20009;-82
2023/05/05 00:18:01;;;;;;;7.50;5.47;;;;;;;10.48;100.00;93158.13;2561047;23;20005;-82
2023/05/05 00:19:11;;;;;;;7.10;6.13;;;;;;;10.45;100.00;93153.63;2560516;23;20076;-82
2023/05/05 00:20:19;;;;;;;8.38;5.60;;;;;;;10.42;100.00;93154.44;2572415;23;20115;-82
2023/05/05 00:21:26;;;;;;;7.00;5.10;;;;;;;10.42;100.00;93156.38;2560088;23;20058;-82
2023/05/05 00:22:35;;;;;;;10.65;5.90;;;;;;;10.43;100.00;93155.19;2572211;23;20360;-81
2023/05/05 00:23:40;;;;;;;8.57;5.75;;;;;;;10.43;100.00;93158.63;2558579;23;20060;-82
2023/05/05 00:24:49;;;;;;;9.68;5.47;;;;;;;10.42;100.00;93154.44;2571134;22;20000;-81
2023/05/05 00:25:57;;;;;;;6.68;5.80;;;;;;;10.40;100.00;93156.03;2569106;23;20423;-83
2023/05/05 00:27:07;;;;;;;13.23;5.78;;;;;;;10.36;100.00;93155.34;2546899;23;20012;-83
2023/05/05 00:28:13;;;;;;;7.55;5.35;;;;;;;10.35;100.00;93154.59;2547492;23;20315;-82
2023/05/05 00:29:23;;;;;;;12.73;5.97;;;;;;;10.36;100.00;93161.47;2557082;23;20069;-82
2023/05/05 00:30:30;;;;;;;10.50;5.60;;;;;;;10.36;100.00;93158.00;2557551;23;20067;-82
2023/05/05 00:31:36;;;;;;;9.93;5.70;;;;;;;10.34;100.00;93158.44;2558971;23;20004;-83
2023/05/05 00:32:45;;;;;;;6.65;5.68;;;;;;;10.30;100.00;93157.75;2569841;23;20320;-82
2023/05/05 00:33:51;;;;;;;9.48;5.22;;;;;;;10.28;100.00;93160.09;2567914;23;20320;-82
2023/05/05 00:35:01;;;;;;;13.25;5.57;;;;;;;10.28;100.00;93154.75;2558042;23;20009;-82
2023/05/05 00:36:11;;;;;;;8.70;5.78;;;;;;;10.30;100.00;93155.06;2567746;23;20008;-81
2023/05/05 00:37:17;;;;;;;7.78;5.70;;;;;;;10.29;100.00;93156.25;2556906;23;20032;-81
2023/05/05 00:38:26;;;;;;;11.52;5.40;;;;;;;10.25;100.00;93152.91;2556652;23;20009;-81
2023/05/05 00:39:32;;;;;;;11.88;5.55;;;;;;;10.30;100.00;93158.50;2559984;23;20092;-82
2023/05/05 00:40:42;;;;;;;7.43;5.68;;;;;;;10.30;100.00;93160.41;2569052;23;20181;-83
2023/05/05 00:41:48;;;;;;;;;;;;;;;10.32;100.00;93155.44;2570640;23;20012;-83
2023/05/05 00:42:54;;;;;;;8.02;5.20;;;;;;;10.31;100.00;93159.25;2569726;23;19931;-83
2023/05/05 00:44:04;;;;;;;10.40;5.38;;;;;;;10.34;100.00;93163.78;2556853;23;20016;-81
2023/05/05 00:45:10;;;;;;;7.57;5.32;;;;;;;10.37;100.00;93156.88;2547005;23;20473;-82
2023/05/05 00:46:29;;;;;;;13.40;5.60;;;;;;;10.31;100.00;93153.91;2556923;23;20035;-82
2023/05/05 00:47:39;;;;;;;9.70;5.38;;;;;;;10.30;100.00;93157.75;2550730;23;20009;-82
2023/05/05 00:48:47;;;;;;;8.88;5.97;;;;;;;10.27;100.00;93154.00;2547567;23;20604;-83
2023/05/05 00:49:53;;;;;;;7.88;5.35;;;;;;;10.32;100.00;93155.44;2557650;23;20005;-82
2023/05/05 00:51:07;;;;;;;9.43;5.30;;;;;;;10.28;100.00;93154.75;2557298;23;20005;-82
2023/05/05 00:52:13;;;;;;;7.95;5.40;;;;;;;10.27;100.00;93155.91;2570863;23;20009;-82
2023/05/05 00:53:19;;;;;;;8.55;5.43;;;;;;;10.28;100.00;93154.75;2569825;23;20083;-83
2023/05/05 00:54:27;;;;;;;14.75;5.85;;;;;;;10.29;100.00;93159.66;2568692;23;20163;-82
2023/05/05 00:55:35;;;;;;;8.70;5.43;;;;;;;10.28;100.00;93152.81;2546806;23;20061;-83
2023/05/05 00:56:42;;;;;;;9.02;4.90;;;;;;;10.27;100.00;93153.22;2545865;23;20016;-82
2023/05/05 00:57:52;;;;;;;10.02;5.22;;;;;;;10.26;100.00;93155.16;2545352;23;20014;-83
2023/05/05 00:58:58;;;;;;;;;;;;;;;10.24;100.00;93160.16;2547835;23;20368;-83
2023/05/05 01:00:08;;;;;;;10.02;5.78;;;;;;;10.24;100.00;93157.50;2557520;23;19908;-82
2023/05/05 01:01:19;;;;;;;6.65;5.20;;;;;;;10.29;100.00;93156.25;2570199;23;20009;-83
2023/05/05 01:02:29;;;;;;;8.20;5.70;;;;;;;10.27;100.00;93156.66;2570229;23;20038;-81
2023/05/05 01:03:48;;;;;;;10.20;5.50;;;;;;;10.26;100.00;93159.72;2570357;23;20008;-81
2023/05/05 01:04:57;;;;;;;15.88;5.80;;;;;;;10.27;100.00;93151.31;2558996;23;20504;-82
2023/05/05 01:06:27;;;;;;;9.90;5.68;;;;;;;10.28;100.00;93152.81;2546930;23;20088;-82
2023/05/05 01:07:58;;;;;;;11.73;6.10;;;;;;;10.28;100.00;93149.41;2555491;23;20001;-82
2023/05/05 01:09:40;;;;;;;11.82;5.90;;;;;;;10.28;100.00;93146.72;2568098;23;20008;-81
2023/05/05 01:11:01;;;;;;;9.25;5.35;;;;;;;10.27;100.00;93145.22;2563714;23;20240;-82
2023/05/05 01:12:49;;;;;;;9.35;5.82;;;;;;;10.25;100.00;93144.88;2567921;23;20001;-82
2023/05/05 01:14:17;;;;;;;8.40;5.05;;;;;;;10.25;100.00;93142.97;2562568;23;20008;-82
2023/05/05 01:15:49;;;;;;;8.57;5.45;;;;;;;10.30;100.00;93147.06;2553993;23;20000;-81
2023/05/05 01:16:59;;;;;;;7.80;5.70;;;;;;;10.22;100.00;93141.06;2555284;23;20091;-82
2023/05/05 01:18:21;;;;;;;9.85;5.95;;;;;;;10.22;100.00;93151.00;2558786;23;20352;-81
2023/05/05 01:19:46;;;;;;;11.30;6.03;;;;;;;10.21;100.00;93144.91;2560321;23;20327;-83
2023/05/05 01:21:11;;;;;;;13.80;6.20;;;;;;;10.17;100.00;93146.91;2553280;23;20008;-82
2023/05/05 01:22:18;;;;;;;7.75;5.65;;;;;;;10.21;100.00;93149.50;2559780;22;20014;-82
2023/05/05 01:24:03;;;;;;;11.25;5.65;;;;;;;10.23;100.00;93144.53;2580806;23;20015;-82
2023/05/05 01:25:32;;;;;;;8.90;5.90;;;;;;;10.20;100.00;93148.00;2545359;23;20261;-81
2023/05/05 01:26:46;;;;;;;10.00;6.20;;;;;;;10.13;100.00;93153.47;2554833;23;20028;-82
2023/05/05 01:28:07;;;;;;;7.55;5.47;;;;;;;10.10;100.00;93155.06;2561204;23;20001;-82
2023/05/05 01:29:36;;;;;;;10.25;5.70;;;;;;;10.04;100.00;93154.78;2559849;23;20491;-82
2023/05/05 01:30:47;;;;;;;7.00;5.57;;;;;;;10.06;100.00;93143.69;2573645;23;20000;-81
2023/05/05 01:32:05;;;;;;;10.30;5.43;;;;;;;10.06;100.00;93154.38;2558163;23;20009;-82
2023/05/05 01:33:17;;;;;;;14.95;5.38;;;;;;;10.00;100.00;93150.66;2559260;23;20088;-81
2023/05/05 01:34:29;;;;;;;9.43;5.43;;;;;;;9.93;100.00;93148.91;2548070;23;20088;-81
2023/05/05 01:35:45;;;;;;;6.60;5.25;;;;;;;9.97;100.00;93146.16;2559911;23;20009;-81
2023/05/05 01:36:57;;;;;;;9.18;6.30;;;;;;;9.93;100.00;93150.81;2558132;23;20470;-82
2023/05/05 01:38:28;;;;;;;9.00;5.20;;;;;;;9.89;100.00;93153.56;2573036;22;20474;-82
2023/05/05 01:39:38;;;;;;;14.93;5.30;;;;;;;9.89;100.00;93163.47;2568065;23;20062;-80
2023/05/05 01:41:14;;;;;;;13.05;6.03;;;;;;;9.84;100.00;93157.44;2547007;23;20002;-81
2023/05/05 01:42:25;;;;;;;10.57;5.38;;;;;;;9.87;100.00;93161.19;2558039;23;20367;-82
2023/05/05 01:43:34;;;;;;;9.13;5.60;;;;;;;9.83;100.00;93158.63;2547764;23;20032;-82
2023/05/05 01:44:43;;;;;;;10.85;5.55;;;;;;;9.78;100.00;93156.41;2557017;23;20008;-82
2023/05/05 01:45:51;;;;;;;9.13;5.80;;;;;;;9.75;100.00;93161.81;2559411;23;20009;-82
2023/05/05 01:47:00;;;;;;;11.52;5.68;;;;;;;9.80;100.00;93161.34;2570042;23;20439;-82
2023/05/05 01:48:07;;;;;;;8.32;5.28;;;;;;;9.70;100.00;93160.38;2557080;23;20001;-82
2023/05/05 01:49:16;;;;;;;9.90;5.57;;;;;;;9.66;100.00;93164.25;2559043;23;20031;-82
2023/05/05 01:50:22;;;;;;;7.97;5.70;;;;;;;9.59;100.00;93162.47;2557679;23;20459;-82
2023/05/05 01:51:27;;;;;;;12.95;5.40;;;;;;;9.63;100.00;93162.41;2556635;23;20004;-81
2023/05/05 01:52:32;;;;;;;12.32;5.47;;;;;;;9.61;100.00;93162.06;2545923;23;20032;-83
2023/05/05 01:53:40;;;;;;;10.13;5.50;;;;;;;9.55;100.00;93154.53;2557000;23;20056;-82
2023/05/05 01:54:49;;;;;;;11.82;6.15;;;;;;;9.55;100.00;93159.84;2568937;23;20032;-83
2023/05/05 01:55:51;;;;;;;11.77;6.05;;;;;;;9.54;100.00;93158.34;2567634;23;20004;-82
2023/05/05 01:56:55;;;;;;;9.43;5.82;;;;;;;9.52;100.00;93158.00;2544015;23;20002;-83
2023/05/05 01:57:58;;;;;;;10.20;5.63;;;;;;;9.56;100.00;93156.03;2555894;23;20004;-83
2023/05/05 01:59:03;;;;;;;10.25;6.32;;;;;;;9.50;100.00;93160.34;2544505;23;20001;-82
2023/05/05 02:00:11;;;;;;;8.63;5.35;;;;;;;9.44;100.00;93167.31;2568851;23;20001;-82
2023/05/05 02:01:23;;;;;;;8.20;5.60;;;;;;;9.37;100.00;93158.66;2555439;23;20483;-82
2023/05/05 02:02:33;;;;;;;11.80;5.72;;;;;;;9.47;100.00;93155.06;2558495;23;20012;-82
2023/05/05 02:03:40;;;;;;;11.70;5.40;;;;;;;9.43;100.00;93151.69;2557832;23;20083;-83
2023/05/05 02:04:45;;;;;;;12.98;5.75;;;;;;;9.39;100.00;93167.75;2558637;23;20025;-82
2023/05/05 02:05:54;;;;;;;12.18;6.40;;;;;;;9.37;100.00;93153.31;2568267;23;20279;-82
2023/05/05 02:07:01;;;;;;;8.55;6.00;;;;;;;9.34;100.00;93168.22;2557291;23;20097;-83
2023/05/05 02:08:05;;;;;;;11.88;6.15;;;;;;;9.34;100.00;93160.97;2556588;23;20008;-83
2023/05/05 02:09:15;;;;;;;8.85;6.20;;;;;;;9.32;100.00;93165.22;2544785;23;20146;-83
2023/05/05 02:10:19;;;;;;;12.05;5.93;;;;;;;9.32;100.00;93157.97;2559839;23;20011;-81
2023/05/05 02:11:27;;;;;;;8.93;5.68;;;;;;;9.35;100.00;93164.41;2567595;23;20032;-83
2023/05/05 02:12:34;;;;;;;9.23;6.25;;;;;;;9.36;100.00;93168.56;2545595;23;20009;-82
2023/05/05 02:13:54;;;;;;;9.90;6.10;;;;;;;9.41;100.00;93168.09;2545391;23;20356;-82
2023/05/05 02:15:06;;;;;;;11.10;6.05;;;;;;;9.37;100.00;93169.34;2562993;23;20067;-83
2023/05/05 02:16:17;;;;;;;8.70;6.57;;;;;;;9.42;100.00;93168.84;2579649;23;20034;-81
2023/05/05 02:17:27;;;;;;;14.82;6.25;;;;;;;9.39;100.00;93167.00;2582350;22;20014;-82
2023/05/05 02:18:38;;;;;;;14.88;6.68;;;;;;;9.39;100.00;93161.66;2566962;23;20004;-83
2023/05/05 02:31:18;;;;;;;;;;;;;;;9.40;100.00;93163.19;2143532;27;20611;-84
2023/05/05 02:32:57;;;;;;;17.25;7.40;;;;;;;9.46;100.00;93154.31;2124364;27;19915;-82
2023/05/05 02:34:08;;;;;;;13.77;7.13;;;;;;;9.51;100.00;93166.41;2112935;28;20024;-83
2023/05/05 02:35:28;;;;;;;16.05;7.78;;;;;;;9.55;100.00;93161.78;2109025;27;20040;-83
2023/05/05 02:36:45;;;;;;;16.65;7.30;;;;;;;9.61;100.00;93162.06;2118706;28;20516;-83
2023/05/05 02:38:04;;;;;;;18.35;7.43;;;;;;;9.67;100.00;93163.09;2104711;28;20058;-83
2023/05/05 02:39:45;;;;;;;16.27;7.47;;;;;;;9.63;100.00;93162.41;2109053;28;20115;-83
2023/05/05 02:40:55;;;;;;;12.27;6.50;;;;;;;9.73;100.00;93164.13;2110027;28;20024;-84
2023/05/05 02:42:03;;;;;;;;;;;;;;;9.79;100.00;93159.84;2123351;27;20045;-83
2023/05/05 02:43:17;;;;;;;13.85;6.07;;;;;;;9.71;100.00;93166.47;2127063;27;19915;-84
2023/05/05 02:44:29;;;;;;;12.15;6.07;;;;;;;9.76;100.00;93168.66;2116217;28;20121;-83
2023/05/05 02:45:39;;;;;;;17.10;6.70;;;;;;;9.68;100.00;93168.03;2120452;27;20025;-82
2023/05/05 02:46:49;;;;;;;11.75;6.65;;;;;;;9.71;100.00;93169.88;2125267;27;20020;-82
2023/05/05 02:47:58;;;;;;;12.43;6.07;;;;;;;9.70;100.00;93170.28;2116652;28;20039;-83
2023/05/05 02:49:07;;;;;;;11.65;6.50;;;;;;;9.80;100.00;93172.03;2109377;28;20059;-83
2023/05/05 02:50:16;;;;;;;13.60;7.20;;;;;;;9.86;100.00;93161.63;2113615;28;20042;-83
2023/05/05 02:51:27;;;;;;;12.45;5.95;;;;;;;9.79;100.00;93171.28;2119944;28;20023;-82
2023/05/05 02:52:36;;;;;;;14.23;6.38;;;;;;;9.73;100.00;93166.81;2120529;27;20020;-83
2023/05/05 02:53:45;;;;;;;10.30;6.10;;;;;;;9.75;100.00;93170.59;2116835;28;20034;-83
2023/05/05 02:54:51;;;;;;;14.38;5.80;;;;;;;9.87;100.00;93169.22;2115687;28;20126;-83
2023/05/05 02:56:22;;;;;;;11.20;5.88;;;;;;;9.82;100.00;93162.44;2124714;27;20038;-83
2023/05/05 02:57:46;;;;;;;18.58;6.45;;;;;;;9.71;100.00;93167.22;2110196;28;20031;-83
2023/05/05 02:59:00;;;;;;;14.48;6.38;;;;;;;9.74;100.00;93169.06;2105181;28;20024;-83
2023/05/05 03:00:30;;;;;;;17.20;6.78;;;;;;;9.72;100.00;93163.38;2111209;27;20028;-83
2023/05/05 03:02:00;;;;;;;11.63;6.60;;;;;;;9.62;100.00;93160.91;2100915;28;20671;-83
2023/05/05 03:03:30;;;;;;;13.48;6.43;;;;;;;9.60;100.00;93166.63;2121258;27;20103;-83
2023/05/05 03:04:43;;;;;;;16.17;6.95;;;;;;;9.60;100.00;93163.97;2116806;27;20054;-82
2023/05/05 03:06:02;;;;;;;17.48;6.53;;;;;;;9.56;100.00;93166.69;2117191;28;20023;-83
2023/05/05 03:07:30;;;;;;;23.90;6.40;;;;;;;9.54;100.00;93161.03;2110051;28;20034;-83
2023/05/05 03:09:07;;;;;;;12.75;6.40;;;;;;;9.56;100.00;93164.03;2107859;28;20513;-83
2023/05/05 03:10:20;;;;;;;11.75;6.43;;;;;;;9.53;100.00;93159.53;2124479;27;20155;-83
2023/05/05 03:11:45;;;;;;;10.00;6.63;;;;;;;9.51;100.00;93161.84;2118431;28;20019;-83
2023/05/05 03:12:57;;;;;;;13.73;6.45;;;;;;;9.51;100.00;93163.75;2107781;28;20030;-83
2023/05/05 03:14:13;;;;;;;12.15;6.28;;;;;;;9.46;100.00;93164.22;2093614;28;20479;-83
2023/05/05 03:15:26;;;;;;;12.15;5.93;;;;;;;9.45;100.00;93158.13;2103019;28;20028;-82
2023/05/05 03:16:37;;;;;;;9.23;6.45;;;;;;;9.51;100.00;93169.84;2108162;28;20023;-83
2023/05/05 03:17:48;;;;;;;16.75;6.78;;;;;;;9.51;100.00;93161.84;2109144;28;20020;-83
2023/05/05 03:18:58;;;;;;;10.80;6.13;;;;;;;9.59;100.00;93160.56;2110789;27;20123;-82
2023/05/05 03:20:11;;;;;;;14.23;6.40;;;;;;;9.53;100.00;93162.19;2108994;28;20114;-83
2023/05/05 03:21:22;;;;;;;8.55;6.10;;;;;;;9.52;100.00;93154.56;2100614;28;20123;-83
2023/05/05 03:22:30;;;;;;;11.50;6.35;;;;;;;9.53;100.00;93161.44;2099790;28;20360;-82
2023/05/05 03:23:40;;;;;;;9.25;6.18;;;;;;;9.48;100.00;93161.88;2102775;28;20366;-82
2023/05/05 03:24:53;;;;;;;10.23;6.05;;;;;;;9.49;100.00;93164.16;2107824;28;20020;-81
2023/05/05 03:26:02;;;;;;;12.75;5.78;;;;;;;9.53;100.00;93161.44;2110024;28;20329;-83
2023/05/05 03:27:07;;;;;;;12.05;5.82;;;;;;;9.55;100.00;93157.19;2094771;28;20028;-81
2023/05/05 03:28:15;;;;;;;9.75;5.50;;;;;;;9.52;100.00;93160.66;2100455;28;20103;-81
2023/05/05 03:29:24;;;;;;;11.95;6.03;;;;;;;9.50;100.00;93162.25;2108667;28;20109;-81
2023/05/05 03:30:32;;;;;;;10.63;5.78;;;;;;;9.47;100.00;93157.72;2113674;27;20019;-83
2023/05/05 03:31:38;;;;;;;8.82;6.20;;;;;;;9.47;100.00;93160.38;2116475;28;20034;-84
2023/05/05 03:32:47;;;;;;;11.48;6.15;;;;;;;9.46;100.00;93162.31;2097518;28;20506;-81
2023/05/05 03:33:54;;;;;;;7.13;6.05;;;;;;;9.41;100.00;93165.44;2097925;28;20040;-81
2023/05/05 03:35:01;;;;;;;8.73;6.15;;;;;;;9.34;100.00;93160.22;2109382;27;20034;-83
2023/05/05 03:36:06;;;;;;;14.70;6.15;;;;;;;9.37;100.00;93167.41;2101485;28;20020;-81
2023/05/05 03:37:10;;;;;;;13.40;6.22;;;;;;;9.39;100.00;93167.75;2100258;28;20100;-82
2023/05/05 03:38:16;;;;;;;7.85;5.57;;;;;;;9.33;100.00;93164.03;2098984;28;20028;-80
2023/05/05 03:39:25;;;;;;;14.20;7.13;;;;;;;9.28;100.00;93161.84;2095060;28;20117;-81
2023/05/05 03:40:30;;;;;;;11.10;6.45;;;;;;;9.27;100.00;93161.09;2103290;27;20394;-81
2023/05/05 03:41:37;;;;;;;10.25;5.93;;;;;;;9.25;100.00;93163.41;2109318;28;20028;-81
2023/05/05 03:42:43;;;;;;;9.40;6.30;;;;;;;9.24;100.00;93167.22;2104235;28;20046;-81
2023/05/05 03:43:50;;;;;;;13.15;6.55;;;;;;;9.26;100.00;93159.59;2103619;28;20027;-82
2023/05/05 03:45:01;;;;;;;12.60;6.68;;;;;;;9.21;100.00;93167.28;2097363;28;20076;-84
2023/05/05 03:46:04;;;;;;;17.20;6.78;;;;;;;9.21;100.00;93164.63;2102607;28;20134;-81
2023/05/05 03:47:13;;;;;;;7.95;6.38;;;;;;;9.21;100.00;93172.63;2105259;28;20057;-80
2023/05/05 03:48:21;;;;;;;8.75;5.85;;;;;;;9.21;100.00;93176.03;2097414;28;20055;-80
2023/05/05 03:49:31;;;;;;;12.15;6.30;;;;;;;9.20;100.00;93171.88;2098035;28;20062;-81
2023/05/05 03:50:36;;;;;;;11.10;6.95;;;;;;;9.22;100.00;93168.78;2102418;28;20020;-81
2023/05/05 03:51:44;;;;;;;11.52;5.85;;;;;;;9.19;100.00;93175.69;2095061;28;20028;-81
2023/05/05 03:52:53;;;;;;;10.52;6.07;;;;;;;9.22;100.00;93169.56;2087223;28;20029;-84
2023/05/05 03:54:03;;;;;;;10.93;6.32;;;;;;;9.25;100.00;93173.31;2099270;28;20111;-81
2023/05/05 03:55:12;;;;;;;7.45;5.85;;;;;;;9.27;100.00;93157.69;2101782;28;20035;-81
2023/05/05 03:56:20;;;;;;;10.18;5.60;;;;;;;9.24;100.00;93171.81;2094388;28;20510;-81
2023/05/05 03:57:33;;;;;;;15.88;5.82;;;;;;;9.30;100.00;93168.25;2089684;28;20078;-83
2023/05/05 03:58:42;;;;;;;12.18;5.90;;;;;;;9.21;100.00;93177.94;2105984;28;20023;-82
2023/05/05 03:59:52;;;;;;;9.95;6.30;;;;;;;9.37;100.00;93164.00;2102324;28;20042;-82
2023/05/05 04:01:02;;;;;;;;;;;;;;;9.30;100.00;93165.59;2107223;28;20081;-81
2023/05/05 04:02:09;;;;;;;10.57;5.93;;;;;;;9.31;100.00;93166.38;2101559;27;19915;-81
2023/05/05 04:03:16;;;;;;;9.25;5.65;;;;;;;9.31;100.00;93164.47;2108192;28;20103;-81
2023/05/05 04:04:21;;;;;;;9.27;5.80;;;;;;;9.29;100.00;93158.75;2094240;28;20032;-82
2023/05/05 04:05:30;;;;;;;12.80;5.85;;;;;;;9.27;100.00;93163.00;2096517;28;20052;-83
2023/05/05 04:06:40;;;;;;;12.85;6.45;;;;;;;9.34;100.00;93160.22;2098416;28;20085;-81
2023/05/05 04:07:49;;;;;;;16.27;5.93;;;;;;;9.29;100.00;93163.34;2093108;28;20032;-82
2023/05/05 04:08:56;;;;;;;19.10;6.28;;;;;;;9.28;100.00;93164.50;2105101;28;20509;-81
2023/05/05 04:10:05;;;;;;;10.10;5.82;;;;;;;9.28;100.00;93167.94;2100553;28;20106;-80
2023/05/05 04:11:11;;;;;;;10.00;5.63;;;;;;;9.29;100.00;93166.75;2089646;28;20033;-81
2023/05/05 04:12:19;;;;;;;8.27;5.95;;;;;;;9.27;100.00;93169.09;2093569;28;20031;-82
2023/05/05 04:13:26;;;;;;;10.77;5.95;;;;;;;9.29;100.00;93164.09;2103429;28;20612;-83
2023/05/05 04:14:36;;;;;;;8.77;5.63;;;;;;;9.33;100.00;93167.47;2105695;27;20582;-81
2023/05/05 04:15:51;;;;;;;10.45;6.68;;;;;;;9.33;100.00;93164.03;2100874;28;20027;-83
2023/05/05 04:16:58;;;;;;;12.32;7.10;;;;;;;9.37;100.00;93164.00;2090287;28;20550;-83
2023/05/05 04:18:05;;;;;;;10.57;7.68;;;;;;;9.44;100.00;93172.63;2083424;28;20592;-83
2023/05/05 04:19:13;;;;;;;16.10;9.18;;;;;;;9.44;100.00;93175.31;2082515;28;20030;-80
2023/05/05 04:20:16;;;;;;;21.52;10.20;;;;;;;9.47;100.00;93176.41;2091156;27;20037;-81
2023/05/05 04:21:20;;;;;;;21.58;14.60;;;;;;;9.51;100.00;93177.09;2101676;28;20023;-80
2023/05/05 04:22:27;;;;;;;33.80;19.33;;;;;;;9.56;100.00;93185.38;2088063;28;20561;-81
2023/05/05 04:23:35;;;;;;;39.53;22.58;;;;;;;9.57;100.00;93170.91;2092979;28;20024;-80
2023/05/05 04:24:43;;;;;;;50.75;32.08;;;;;;;9.63;100.00;93170.41;2081351;28;20079;-83
2023/05/05 04:25:49;;;;;;;61.72;37.88;;;;;;;9.67;100.00;93171.88;2091155;28;20655;-81
2023/05/05 04:26:54;;;;;;;51.00;31.15;;;;;;;9.74;100.00;93174.41;2100579;28;20028;-81
2023/05/05 04:28:02;;;;;;;33.03;19.60;;;;;;;9.80;100.00;93180.78;2088986;28;20069;-81
2023/05/05 04:29:08;;;;;;;19.88;11.82;;;;;;;9.82;100.00;93167.03;2097648;28;20394;-81
2023/05/05 04:30:14;;;;;;;20.52;13.50;;;;;;;9.84;100.00;93170.81;2085638;28;20020;-81
2023/05/05 04:31:21;;;;;;;18.73;10.65;;;;;;;9.85;100.00;93166.22;2092165;28;20755;-81
2023/05/05 04:32:29;;;;;;;15.18;8.27;;;;;;;9.89;100.00;93169.56;2096419;28;20414;-81
2023/05/05 04:33:36;;;;;;;20.05;9.70;;;;;;;9.92;100.00;93163.41;2100404;28;20332;-81
2023/05/05 04:34:43;;;;;;;15.27;8.68;;;;;;;9.97;100.00;93172.88;2097334;28;20032;-82
2023/05/05 04:35:48;;;;;;;14.55;8.90;;;;;;;9.98;100.00;93169.78;2093114;28;20364;-82
2023/05/05 04:36:53;;;;;;;20.00;7.90;;;;;;;9.97;100.00;93168.28;2093627;28;20478;-82
2023/05/05 04:38:00;;;;;;;9.48;6.65;;;;;;;9.98;100.00;93163.69;2098216;28;20778;-82
2023/05/05 04:39:10;;;;;;;12.18;6.82;;;;;;;10.00;100.00;93164.78;2098999;28;20039;-82
2023/05/05 04:40:16;;;;;;;12.57;7.30;;;;;;;10.07;100.00;93164.66;2101461;28;20024;-82
2023/05/05 04:41:20;;;;;;;11.30;6.72;;;;;;;10.15;100.00;93167.19;2087110;28;20079;-82
2023/05/05 04:42:27;;;;;;;15.25;7.05;;;;;;;10.11;100.00;93172.59;2087035;28;20467;-84
2023/05/05 04:43:29;;;;;;;12.68;6.68;;;;;;;10.16;100.00;93174.78;2102700;28;20023;-82
2023/05/05 04:44:30;;;;;;;10.10;6.47;;;;;;;10.13;100.00;93172.94;2100613;28;20020;-81
2023/05/05 04:45:31;;;;;;;12.02;6.72;;;;;;;10.15;100.00;93164.53;2092558;28;20048;-81
2023/05/05 04:46:33;;;;;;;8.13;6.15;;;;;;;10.16;100.00;93172.13;2097738;28;20023;-82
2023/05/05 04:47:40;;;;;;;13.75;6.57;;;;;;;10.18;100.00;93167.09;2106467;28;20436;-82
2023/05/05 04:48:45;;;;;;;13.20;6.97;;;;;;;10.21;100.00;93168.22;2087018;28;20036;-82
2023/05/05 04:49:46;;;;;;;11.90;6.45;;;;;;;10.24;100.00;93170.84;2094522;28;20094;-81
2023/05/05 04:50:47;;;;;;;10.07;6.70;;;;;;;10.29;100.00;93166.94;2093751;28;20024;-81
2023/05/05 04:51:48;;;;;;;12.25;6.40;;;;;;;10.36;100.00;93168.69;2093759;28;20034;-81
2023/05/05 04:52:49;;;;;;;11.75;6.78;;;;;;;10.38;100.00;93175.16;2089945;28;20028;-81
2023/05/05 04:53:51;;;;;;;12.68;7.55;;;;;;;10.41;100.00;93178.94;2094150;28;20029;-82
2023/05/05 04:54:51;;;;;;;9.80;7.55;;;;;;;10.43;100.00;93172.00;2091739;28;20029;-81
2023/05/05 04:55:52;;;;;;;15.32;7.90;;;;;;;10.45;100.00;93174.25;2106857;28;20258;-82
2023/05/05 04:56:54;;;;;;;11.43;7.40;;;;;;;10.45;100.00;93185.69;2095373;28;20031;-81
2023/05/05 04:57:55;;;;;;;11.23;7.57;;;;;;;10.45;100.00;93185.69;2091731;28;20016;-82
2023/05/05 04:58:56;;;;;;;15.20;8.23;;;;;;;10.47;100.00;93183.34;2085913;28;20024;-82
2023/05/05 04:59:59;;;;;;;11.77;7.35;;;;;;;10.51;100.00;93191.31;2086197;28;20419;-82
2023/05/05 05:01:00;;;;;;;19.77;8.10;;;;;;;10.51;100.00;93181.38;2086503;28;20456;-82
2023/05/05 05:02:03;;;;;;;21.75;8.60;;;;;;;10.56;100.00;93194.25;2093044;28;20341;-82
2023/05/05 05:03:04;;;;;;;19.00;8.88;;;;;;;10.58;100.00;93191.94;2095666;28;20029;-83
2023/05/05 05:04:06;;;;;;;15.07;7.88;;;;;;;10.59;100.00;93185.41;2101637;28;20031;-83
2023/05/05 05:05:08;;;;;;;14.23;7.75;;;;;;;10.63;100.00;93189.94;2097003;28;20127;-82
2023/05/05 05:06:09;;;;;;;11.82;7.45;;;;;;;10.63;100.00;93185.34;2097058;28;20024;-83
2023/05/05 05:07:11;;;;;;;10.00;6.70;;;;;;;10.64;100.00;93189.50;2095566;28;20158;-84
2023/05/05 05:08:15;;;;;;;10.43;6.15;;;;;;;10.65;100.00;93185.66;2092604;28;20032;-82
2023/05/05 05:09:16;;;;;;;9.40;6.55;;;;;;;10.70;100.00;93187.09;2092903;28;20017;-81
2023/05/05 05:10:18;;;;;;;12.38;6.35;;;;;;;10.72;100.00;93188.19;2084944;28;20681;-82
2023/05/05 05:11:20;;;;;;;8.43;6.53;;;;;;;10.72;100.00;93187.44;2085560;28;20055;-82
2023/05/05 05:12:23;;;;;;;8.18;5.75;;;;;;;10.75;100.00;93189.28;2094618;28;20024;-83
2023/05/05 05:13:24;;;;;;;11.75;6.47;;;;;;;10.78;100.00;93191.13;2097861;28;20027;-82
2023/05/05 05:14:27;;;;;;;10.40;6.85;;;;;;;10.79;100.00;93187.28;2097873;28;20545;-82
2023/05/05 05:15:28;;;;;;;9.77;5.90;;;;;;;10.82;100.00;93189.13;2103755;28;20036;-83
2023/05/05 05:16:29;;;;;;;12.02;6.32;;;;;;;10.81;100.00;93191.06;2097008;28;20412;-83
2023/05/05 05:17:30;;;;;;;12.35;7.38;;;;;;;10.87;100.00;93195.91;2089037;28;20029;-82
2023/05/05 05:18:32;;;;;;;15.48;6.72;;;;;;;10.87;100.00;93196.66;2091774;28;20028;-82
2023/05/05 05:19:33;;;;;;;12.15;7.20;;;;;;;10.87;100.00;93198.59;2107013;28;20043;-82
2023/05/05 05:20:34;;;;;;;12.55;6.95;;;;;;;10.91;100.00;93205.34;2110073;28;20103;-82
2023/05/05 05:21:35;;;;;;;15.90;7.00;;;;;;;10.91;100.00;93197.34;2105854;28;20035;-82
2023/05/05 05:22:39;;;;;;;11.35;6.70;;;;;;;10.94;100.00;93203.78;2093803;28;20036;-82
2023/05/05 05:23:42;;;;;;;17.65;6.70;;;;;;;10.97;100.00;93203.69;2096191;28;20039;-82
2023/05/05 05:24:43;;;;;;;10.50;6.53;;;;;;;10.99;100.00;93204.03;2110260;28;20255;-81
2023/05/05 05:25:44;;;;;;;13.80;6.82;;;;;;;11.06;100.00;93205.78;2101642;28;20432;-82
2023/05/05 05:26:45;;;;;;;17.55;6.88;;;;;;;11.08;100.00;93211.50;2093630;28;20630;-81
2023/05/05 05:27:46;;;;;;;13.82;7.18;;;;;;;11.07;100.00;93205.41;2095349;28;20343;-82
2023/05/05 05:28:47;;;;;;;14.57;7.13;;;;;;;11.12;100.00;93201.47;2086706;28;20025;-82
2023/05/05 05:29:48;;;;;;;12.88;6.40;;;;;;;11.14;100.00;93201.03;2093127;28;20495;-83
2023/05/05 05:30:50;;;;;;;14.40;6.97;;;;;;;11.13;100.00;93207.56;2093294;28;20071;-82
2023/05/05 05:31:52;;;;;;;16.30;6.30;;;;;;;11.08;100.00;93212.25;2097631;28;20390;-82
2023/05/05 05:32:53;;;;;;;14.10;6.55;;;;;;;11.09;100.00;93205.72;2097862;28;20023;-82
2023/05/05 05:33:55;;;;;;;12.02;6.72;;;;;;;11.09;100.00;93204.97;2092914;28;20386;-82
2023/05/05 05:34:55;;;;;;;13.48;6.32;;;;;;;11.10;100.00;93206.47;2101811;28;20032;-82